Time;durP1;ratioP1;P1;durP2;ratioP2;P2;SDS_P1;SDS_P2;PMS_P1;PMS_P2;Temp;Humidity;BMP_temperature;BMP_pressure;BME280_temperature;BME280_humidity;BME280_pressure;Samples;Min_cycle;Max_cycle;Signal;HPM_P1;HPM_P2
2023/06/25 00:00:02;;;;;;;1.40;1.40;;;20.90;99.90;;;;;;5049501;28;20698;-63
2023/06/25 00:02:29;;;;;;;1.10;1.10;;;20.90;99.90;;;;;;5049365;28;20287;-63
2023/06/25 00:04:56;;;;;;;1.10;1.10;;;20.80;99.90;;;;;;5049250;28;20206;-64
2023/06/25 00:07:23;;;;;;;1.20;1.20;;;20.80;99.90;;;;;;5050902;28;20207;-64
2023/06/25 00:09:54;;;;;;;1.00;1.00;;;20.80;99.90;;;;;;5051413;28;20203;-63
2023/06/25 00:12:20;;;;;;;1.10;1.10;;;20.70;99.90;;;;;;5058239;28;20401;-64
2023/06/25 00:14:49;;;;;;;1.00;1.00;;;20.60;99.90;;;;;;5050727;28;20238;-64
2023/06/25 00:17:17;;;;;;;1.20;1.20;;;20.50;99.90;;;;;;5049378;28;20211;-63
2023/06/25 00:19:44;;;;;;;1.20;1.20;;;20.50;99.90;;;;;;5048749;28;20208;-64
2023/06/25 00:22:11;;;;;;;1.10;1.10;;;20.40;99.90;;;;;;5049284;28;20228;-64
2023/06/25 00:24:38;;;;;;;1.17;1.17;;;20.40;99.90;;;;;;5048717;28;20254;-64
2023/06/25 00:27:06;;;;;;;1.30;1.30;;;20.30;99.90;;;;;;5048503;28;20204;-64
2023/06/25 00:29:33;;;;;;;1.20;1.20;;;20.30;99.90;;;;;;5048824;28;20204;-64
2023/06/25 00:32:02;;;;;;;1.10;1.10;;;20.30;99.90;;;;;;5048974;28;20230;-64
2023/06/25 00:34:29;;;;;;;1.15;1.15;;;20.30;99.90;;;;;;5050923;28;20287;-63
2023/06/25 00:36:56;;;;;;;1.10;1.10;;;20.30;99.90;;;;;;5049128;28;20203;-64
2023/06/25 00:39:22;;;;;;;1.77;1.15;;;20.30;99.90;;;;;;5047999;28;20200;-64
2023/06/25 00:41:49;;;;;;;15.03;14.50;;;20.30;99.90;;;;;;5050121;28;20714;-64
2023/06/25 00:44:16;;;;;;;16.08;15.43;;;20.20;99.90;;;;;;5049743;28;20203;-63
2023/06/25 00:46:43;;;;;;;1.20;1.20;;;20.20;99.90;;;;;;5053457;28;20211;-64
2023/06/25 00:49:13;;;;;;;11.38;10.75;;;20.20;99.90;;;;;;5055426;28;20210;-65
2023/06/25 00:51:40;;;;;;;2.85;2.75;;;20.20;99.90;;;;;;5054874;28;20720;-63
2023/06/25 00:54:07;;;;;;;1.10;1.10;;;20.20;99.90;;;;;;5055398;28;20234;-64
2023/06/25 00:56:34;;;;;;;1.10;1.10;;;20.10;99.90;;;;;;5056524;28;20211;-62
2023/06/25 00:59:03;;;;;;;1.08;1.08;;;20.00;99.90;;;;;;5052701;28;20210;-64
2023/06/25 01:01:37;;;;;;;2.50;2.40;;;20.00;99.90;;;;;;5053564;28;20235;-64
2023/06/25 01:04:12;;;;;;;1.20;1.20;;;20.00;99.90;;;;;;5053302;28;20203;-64
2023/06/25 01:06:47;;;;;;;14.98;14.43;;;20.00;99.90;;;;;;5053910;28;20211;-63
2023/06/25 01:09:14;;;;;;;285.70;212.57;;;19.90;99.90;;;;;;5052567;28;20199;-64
2023/06/25 01:11:41;;;;;;;1.10;1.10;;;19.90;99.90;;;;;;5053869;28;20228;-64
2023/06/25 01:14:09;;;;;;;1.20;1.20;;;19.90;99.90;;;;;;5055733;28;20274;-63
2023/06/25 01:16:36;;;;;;;1.48;1.40;;;19.90;99.90;;;;;;5053518;28;20215;-64
2023/06/25 01:19:03;;;;;;;1.35;1.35;;;19.90;99.90;;;;;;5051852;28;20311;-64
2023/06/25 01:21:31;;;;;;;1.65;1.60;;;19.80;99.90;;;;;;5052183;28;20224;-63
2023/06/25 01:24:00;;;;;;;1.67;1.67;;;19.80;99.90;;;;;;5051542;28;20772;-63
2023/06/25 01:26:27;;;;;;;1.50;1.50;;;19.80;99.90;;;;;;5032353;28;20733;-64
2023/06/25 01:28:55;;;;;;;1.70;1.70;;;19.80;99.90;;;;;;5032133;28;20609;-64
2023/06/25 01:31:30;;;;;;;1.60;1.60;;;19.80;99.90;;;;;;5030533;28;20320;-64
2023/06/25 01:33:57;;;;;;;4.05;3.95;;;19.80;99.90;;;;;;5030771;28;20226;-64
2023/06/25 01:36:24;;;;;;;25.92;24.92;;;19.70;99.90;;;;;;5052341;28;20219;-63
2023/06/25 01:38:51;;;;;;;88.65;85.25;;;19.70;99.90;;;;;;5065162;28;20212;-63
2023/06/25 01:41:19;;;;;;;112.68;108.35;;;19.70;99.90;;;;;;5050586;28;20286;-64
2023/06/25 01:43:46;;;;;;;110.00;105.72;;;19.60;99.90;;;;;;5053938;28;20242;-64
2023/06/25 01:46:13;;;;;;;132.37;127.40;;;19.60;99.90;;;;;;5049784;28;20204;-63
2023/06/25 01:48:39;;;;;;;125.97;121.18;;;19.60;99.90;;;;;;5054368;28;20207;-63
2023/06/25 01:51:06;;;;;;;162.02;155.70;;;19.60;99.90;;;;;;5052035;28;20234;-63
2023/06/25 01:53:33;;;;;;;72.85;70.05;;;19.60;99.90;;;;;;5051618;28;20227;-64
2023/06/25 01:56:00;;;;;;;18.40;17.70;;;19.50;99.90;;;;;;5052084;28;20200;-63
2023/06/25 01:58:28;;;;;;;4.03;3.92;;;19.40;99.90;;;;;;5060978;28;20239;-64
2023/06/25 02:00:55;;;;;;;5.25;5.05;;;19.40;99.90;;;;;;5051685;28;20224;-64
2023/06/25 02:03:21;;;;;;;7.63;7.13;;;19.40;99.90;;;;;;5051106;28;20208;-63
2023/06/25 02:05:48;;;;;;;5.60;5.40;;;19.40;99.90;;;;;;5055884;28;20204;-64
2023/06/25 02:08:15;;;;;;;5.40;5.20;;;19.30;99.90;;;;;;5052010;28;20246;-63
2023/06/25 02:10:42;;;;;;;11.77;11.37;;;19.20;99.90;;;;;;5051689;28;20235;-64
2023/06/25 02:13:09;;;;;;;16.37;15.80;;;19.20;99.90;;;;;;5052767;28;20228;-64
2023/06/25 02:15:37;;;;;;;12.32;11.93;;;19.10;99.90;;;;;;5052171;28;20281;-63
2023/06/25 02:18:04;;;;;;;11.02;10.63;;;19.10;99.90;;;;;;5052014;28;20207;-63
2023/06/25 02:20:31;;;;;;;11.75;11.35;;;19.10;99.90;;;;;;5051137;28;20234;-63
2023/06/25 02:22:58;;;;;;;20.52;19.73;;;19.10;99.90;;;;;;5052059;28;20230;-64
2023/06/25 02:25:24;;;;;;;25.30;24.40;;;19.00;99.90;;;;;;5054153;28;20295;-63
2023/06/25 02:27:51;;;;;;;34.07;32.80;;;19.00;99.90;;;;;;5052658;28;20222;-64
2023/06/25 02:30:18;;;;;;;41.55;40.00;;;19.00;99.90;;;;;;5051752;28;20315;-63
2023/06/25 02:32:46;;;;;;;64.03;61.57;;;18.90;99.90;;;;;;5050975;28;20305;-64
2023/06/25 02:35:13;;;;;;;77.47;74.40;;;18.90;99.90;;;;;;5055315;28;20258;-64
2023/06/25 02:37:40;;;;;;;56.33;54.10;;;18.90;99.90;;;;;;5059929;28;20280;-63
2023/06/25 02:40:08;;;;;;;30.27;29.15;;;18.90;99.90;;;;;;5055168;28;20754;-63
2023/06/25 02:42:35;;;;;;;18.63;17.92;;;18.80;99.90;;;;;;5051335;28;20214;-64
2023/06/25 02:45:01;;;;;;;17.88;17.08;;;18.80;99.90;;;;;;5049449;28;20210;-64
2023/06/25 02:47:28;;;;;;;16.50;15.75;;;18.80;99.90;;;;;;5051535;28;20302;-63
2023/06/25 02:49:56;;;;;;;28.90;27.42;;;18.70;99.90;;;;;;5051359;28;20204;-64
2023/06/25 02:52:23;;;;;;;44.50;42.00;;;18.70;99.90;;;;;;5051178;28;20208;-64
2023/06/25 02:54:50;;;;;;;72.75;68.68;;;18.70;99.90;;;;;;5050374;28;20230;-64
2023/06/25 02:57:17;;;;;;;101.13;95.50;;;18.60;99.90;;;;;;5050984;28;20222;-64
2023/06/25 02:59:44;;;;;;;135.07;128.23;;;18.60;99.90;;;;;;5050866;28;20211;-64
2023/06/25 03:02:11;;;;;;;135.27;128.57;;;18.50;99.90;;;;;;5051758;28;20230;-63
2023/06/25 03:04:37;;;;;;;133.93;127.15;;;18.40;99.90;;;;;;5052684;28;20200;-63
2023/06/25 03:07:07;;;;;;;167.10;159.13;;;18.40;99.90;;;;;;5056994;28;20214;-63
2023/06/25 03:09:33;;;;;;;167.75;159.80;;;18.40;99.90;;;;;;5052141;28;20200;-63
2023/06/25 03:12:00;;;;;;;193.90;184.98;;;18.30;99.90;;;;;;5051990;28;20246;-63
2023/06/25 03:14:27;;;;;;;191.07;182.52;;;18.20;99.90;;;;;;5052811;28;20251;-63
2023/06/25 03:16:54;;;;;;;217.20;207.38;;;18.20;99.90;;;;;;5051015;28;20204;-64
2023/06/25 03:19:21;;;;;;;240.15;229.25;;;18.20;99.90;;;;;;5050591;28;20214;-64
2023/06/25 03:21:47;;;;;;;245.48;234.73;;;18.10;99.90;;;;;;5051094;28;20337;-64
2023/06/25 03:24:16;;;;;;;237.85;227.68;;;18.10;99.90;;;;;;5051650;28;20192;-63
2023/06/25 03:26:42;;;;;;;209.68;201.23;;;18.10;99.90;;;;;;5051130;28;20218;-63
2023/06/25 03:29:09;;;;;;;200.98;192.88;;;18.00;99.90;;;;;;5050677;28;20577;-64
2023/06/25 03:31:36;;;;;;;203.27;195.23;;;18.00;99.90;;;;;;5050265;28;20230;-64
2023/06/25 03:34:03;;;;;;;619.70;576.75;;;17.90;99.90;;;;;;5050392;28;20848;-64
2023/06/25 03:36:30;;;;;;;654.13;615.53;;;17.90;99.90;;;;;;5051696;28;20206;-63
2023/06/25 03:38:57;;;;;;;729.22;672.20;;;17.90;99.90;;;;;;5049148;28;20544;-64
2023/06/25 03:41:25;;;;;;;963.28;864.58;;;17.80;99.90;;;;;;5049359;28;20690;-62
2023/06/25 03:43:52;;;;;;;158.45;149.73;;;17.80;99.90;;;;;;5049252;28;20192;-64
2023/06/25 03:46:19;;;;;;;532.90;501.05;;;17.90;99.90;;;;;;5049915;28;20299;-63
2023/06/25 03:48:46;;;;;;;316.27;299.02;;;17.90;99.90;;;;;;5048927;28;20218;-64
2023/06/25 03:51:13;;;;;;;465.57;439.60;;;17.90;99.90;;;;;;5048824;28;20227;-64
2023/06/25 03:53:40;;;;;;;540.30;513.17;;;17.90;99.90;;;;;;5051147;28;20242;-64
2023/06/25 03:56:07;;;;;;;494.03;468.83;;;17.90;99.90;;;;;;5051630;28;20569;-64
2023/06/25 03:58:36;;;;;;;567.78;534.53;;;18.00;99.90;;;;;;5052457;28;20302;-63
2023/06/25 04:01:02;;;;;;;656.33;614.90;;;18.00;99.90;;;;;;5046878;28;20232;-63
2023/06/25 04:03:29;;;;;;;572.55;535.92;;;18.00;99.90;;;;;;5032387;28;20288;-63
2023/06/25 04:05:56;;;;;;;504.80;470.30;;;18.00;99.90;;;;;;5051547;28;20203;-63
2023/06/25 04:08:23;;;;;;;657.55;611.42;;;18.00;99.90;;;;;;5050901;28;20207;-64
2023/06/25 04:10:50;;;;;;;699.55;657.17;;;18.00;99.90;;;;;;5049362;28;20326;-63
2023/06/25 04:13:17;;;;;;;585.30;555.95;;;18.00;99.90;;;;;;5106675;22;20736;-74
2023/06/25 04:15:45;;;;;;;434.38;414.25;;;17.90;99.90;;;;;;5090720;28;20302;-75
2023/06/25 04:18:12;;;;;;;482.33;460.00;;;17.90;99.90;;;;;;5090821;28;20294;-73
2023/06/25 04:20:39;;;;;;;561.38;534.45;;;17.90;99.90;;;;;;5089995;28;20203;-75
2023/06/25 04:23:06;;;;;;;606.00;571.17;;;17.80;99.90;;;;;;5090453;28;20237;-73
2023/06/25 04:25:33;;;;;;;705.95;650.17;;;17.80;99.90;;;;;;5090000;28;20305;-73
2023/06/25 04:28:00;;;;;;;714.67;649.77;;;17.90;99.90;;;;;;5090652;28;20215;-74
2023/06/25 04:30:27;;;;;;;774.78;698.15;;;17.80;99.90;;;;;;5092395;28;20264;-72
2023/06/25 04:32:55;;;;;;;704.13;635.05;;;17.80;99.90;;;;;;5093235;28;20206;-74
2023/06/25 04:35:22;;;;;;;467.17;428.20;;;17.80;99.90;;;;;;5092666;28;20305;-75
2023/06/25 04:37:49;;;;;;;346.88;325.95;;;17.90;99.90;;;;;;5096220;28;20241;-74
2023/06/25 04:40:16;;;;;;;374.45;354.95;;;17.90;99.90;;;;;;5096327;28;20258;-76
2023/06/25 04:42:43;;;;;;;421.35;399.63;;;17.90;99.90;;;;;;5094058;28;20198;-73
2023/06/25 04:45:10;;;;;;;644.25;597.88;;;18.00;99.90;;;;;;5094199;28;20639;-74
2023/06/25 04:47:37;;;;;;;844.83;771.85;;;18.00;99.90;;;;;;5094080;28;20207;-74
2023/06/25 04:50:06;;;;;;;1018.40;895.90;;;18.10;99.90;;;;;;5094251;28;20625;-74
2023/06/25 04:52:33;;;;;;;1374.65;995.47;;;18.30;99.90;;;;;;5093892;28;20585;-73
2023/06/25 04:55:00;;;;;;;1465.57;999.90;;;18.30;99.90;;;;;;5093800;28;20258;-76
2023/06/25 04:57:27;;;;;;;1509.78;999.90;;;18.40;99.90;;;;;;5094264;28;20289;-75
2023/06/25 04:59:54;;;;;;;1426.20;999.90;;;18.50;99.90;;;;;;5093806;28;20234;-76
2023/06/25 05:02:21;;;;;;;1048.38;928.30;;;18.60;99.90;;;;;;5094668;28;20209;-73
2023/06/25 05:04:48;;;;;;;1102.30;968.88;;;18.70;99.90;;;;;;5094366;28;20313;-74
2023/06/25 05:07:16;;;;;;;1448.32;999.90;;;18.80;99.90;;;;;;5094532;28;20236;-75
2023/06/25 05:09:43;;;;;;;1747.15;999.90;;;18.90;99.90;;;;;;5093117;28;20244;-75
2023/06/25 05:12:10;;;;;;;1639.97;999.90;;;19.10;99.90;;;;;;5093529;28;20220;-75
2023/06/25 05:14:38;;;;;;;1855.90;999.90;;;19.30;99.90;;;;;;5092363;28;20318;-76
2023/06/25 05:17:05;;;;;;;1717.90;999.90;;;19.50;99.90;;;;;;5093500;28;20206;-72
2023/06/25 05:19:32;;;;;;;1561.43;999.90;;;19.70;99.90;;;;;;5092348;28;20289;-73
2023/06/25 05:21:59;;;;;;;1188.80;930.78;;;19.90;99.90;;;;;;5093088;28;20289;-75
2023/06/25 05:24:28;;;;;;;962.03;854.15;;;20.00;99.90;;;;;;5092832;28;20246;-75
2023/06/25 05:26:55;;;;;;;838.60;760.58;;;20.20;99.90;;;;;;5093991;28;20729;-74
2023/06/25 05:29:22;;;;;;;840.00;762.63;;;20.40;99.90;;;;;;5093044;28;20683;-74
2023/06/25 05:31:49;;;;;;;1210.78;999.90;;;20.50;99.90;;;;;;5093431;28;20635;-76
2023/06/25 05:34:16;;;;;;;803.07;744.17;;;20.70;99.90;;;;;;5093518;28;20281;-76
2023/06/25 05:36:43;;;;;;;909.28;835.08;;;20.90;99.90;;;;;;5093195;28;20206;-76
2023/06/25 05:39:10;;;;;;;917.10;839.45;;;21.10;99.90;;;;;;5093967;28;20768;-73
2023/06/25 05:41:40;;;;;;;1034.72;933.17;;;21.30;99.90;;;;;;5093782;28;20207;-73
2023/06/25 05:44:08;;;;;;;1076.68;968.67;;;21.40;99.90;;;;;;5093968;28;20222;-76
2023/06/25 05:46:35;;;;;;;1092.10;977.03;;;21.50;99.90;;;;;;5093362;28;20256;-74
2023/06/25 05:49:02;;;;;;;1105.20;985.53;;;21.60;99.90;;;;;;5093892;28;20590;-75
2023/06/25 05:51:29;;;;;;;1091.18;978.95;;;21.70;99.90;;;;;;5092576;28;20306;-76
2023/06/25 05:53:56;;;;;;;1070.68;963.08;;;21.80;99.90;;;;;;5093030;28;20309;-73
2023/06/25 05:56:23;;;;;;;1083.90;975.08;;;22.00;99.90;;;;;;5092704;28;20255;-74
2023/06/25 05:58:51;;;;;;;1009.15;916.92;;;22.10;99.90;;;;;;5092703;28;20742;-74
2023/06/25 06:01:18;;;;;;;912.80;836.97;;;22.30;99.90;;;;;;5093420;28;20242;-75
2023/06/25 06:03:46;;;;;;;913.00;837.88;;;22.40;99.90;;;;;;5092945;28;20255;-73
2023/06/25 06:06:13;;;;;;;869.63;800.45;;;22.50;99.90;;;;;;5094138;28;20202;-74
2023/06/25 06:08:41;;;;;;;860.35;792.80;;;22.60;99.90;;;;;;5093582;28;20569;-72
2023/06/25 06:11:08;;;;;;;810.30;748.72;;;22.80;99.90;;;;;;5095061;28;20241;-74
2023/06/25 06:13:35;;;;;;;874.25;802.88;;;22.90;99.90;;;;;;5096026;28;20620;-74
2023/06/25 06:16:04;;;;;;;904.80;826.58;;;23.20;99.90;;;;;;5094665;28;20309;-74
2023/06/25 06:18:31;;;;;;;814.28;749.15;;;23.40;99.90;;;;;;5094479;28;20233;-74
2023/06/25 06:20:58;;;;;;;880.28;807.25;;;23.40;99.90;;;;;;5094039;28;20238;-73
2023/06/25 06:23:25;;;;;;;917.08;832.05;;;23.60;99.90;;;;;;5092154;28;20230;-74
2023/06/25 06:25:52;;;;;;;903.67;821.35;;;23.80;99.90;;;;;;5091267;28;20301;-76
2023/06/25 06:28:20;;;;;;;874.00;797.67;;;23.90;99.90;;;;;;5092036;28;20210;-75
2023/06/25 06:30:46;;;;;;;913.25;823.53;;;23.90;99.90;;;;;;5091852;28;20297;-75
2023/06/25 06:33:15;;;;;;;903.58;816.78;;;23.90;99.90;;;;;;5091566;28;20293;-78
2023/06/25 06:35:42;;;;;;;967.65;868.13;;;24.00;99.90;;;;;;5090550;28;20229;-73
2023/06/25 06:38:09;;;;;;;1042.65;921.85;;;24.00;99.90;;;;;;5091920;28;20198;-75
2023/06/25 06:40:36;;;;;;;1077.07;953.25;;;24.10;99.90;;;;;;5092228;28;20660;-75
2023/06/25 06:43:03;;;;;;;1111.72;970.45;;;24.20;99.90;;;;;;5091823;28;20209;-75
2023/06/25 06:45:30;;;;;;;1328.85;999.90;;;24.30;99.90;;;;;;5092347;28;20257;-75
2023/06/25 06:47:56;;;;;;;1543.15;999.90;;;24.30;99.90;;;;;;5093491;28;20626;-74
2023/06/25 06:50:25;;;;;;;1720.53;999.90;;;24.40;99.90;;;;;;5092547;28;20612;-76
2023/06/25 06:52:52;;;;;;;1744.20;999.90;;;24.40;99.90;;;;;;5091915;28;20209;-74
2023/06/25 06:55:19;;;;;;;1583.15;999.90;;;24.60;99.90;;;;;;5092294;28;20314;-75
2023/06/25 06:57:46;;;;;;;1609.53;999.90;;;24.60;99.90;;;;;;5091634;28;20202;-73
2023/06/25 07:00:15;;;;;;;1542.28;999.90;;;24.60;99.90;;;;;;5091116;28;20253;-75
2023/06/25 07:02:42;;;;;;;1418.07;999.90;;;24.70;99.90;;;;;;5091515;28;20271;-75
2023/06/25 07:05:09;;;;;;;1466.47;999.90;;;24.70;99.90;;;;;;5090795;28;20257;-73
2023/06/25 07:07:38;;;;;;;1559.13;999.90;;;24.80;99.90;;;;;;5090919;28;20230;-75
2023/06/25 07:10:05;;;;;;;1694.50;999.90;;;24.90;99.90;;;;;;5091715;28;20290;-75
2023/06/25 07:12:33;;;;;;;1452.78;999.90;;;24.90;99.90;;;;;;5091392;28;20253;-74
2023/06/25 07:15:00;;;;;;;1424.97;999.90;;;24.90;99.90;;;;;;5091233;28;20238;-74
2023/06/25 07:17:27;;;;;;;1250.97;999.90;;;25.00;99.90;;;;;;5092552;28;20199;-76
2023/06/25 07:19:54;;;;;;;1168.82;999.90;;;25.00;99.90;;;;;;5092652;28;20202;-73
2023/06/25 07:22:21;;;;;;;1086.28;986.40;;;25.10;99.90;;;;;;5091751;28;20199;-75
2023/06/25 07:24:49;;;;;;;1033.60;941.80;;;25.10;99.90;;;;;;5091807;28;20305;-75
2023/06/25 07:27:16;;;;;;;966.95;886.38;;;25.20;99.90;;;;;;5091692;28;20238;-76
2023/06/25 07:29:43;;;;;;;755.72;681.83;;;25.30;99.90;;;;;;5092114;28;20230;-76
2023/06/25 07:32:10;;;;;;;172.50;161.73;;;25.30;99.90;;;;;;5091080;28;20329;-76
2023/06/25 07:34:37;;;;;;;145.60;135.95;;;25.30;99.90;;;;;;5091178;28;20222;-74
2023/06/25 07:37:05;;;;;;;119.25;112.25;;;25.50;99.90;;;;;;5091498;28;20210;-75
2023/06/25 07:39:33;;;;;;;143.27;134.85;;;25.50;99.90;;;;;;5091719;28;20294;-75
2023/06/25 07:42:01;;;;;;;167.07;157.45;;;25.60;99.90;;;;;;5091563;28;20260;-75
2023/06/25 07:44:28;;;;;;;220.85;207.52;;;25.60;99.90;;;;;;5090585;28;20310;-75
2023/06/25 07:46:56;;;;;;;296.25;278.65;;;25.60;99.90;;;;;;5091248;28;20265;-75
2023/06/25 07:49:23;;;;;;;378.20;354.50;;;25.60;99.90;;;;;;5091767;28;20263;-74
2023/06/25 07:51:51;;;;;;;520.78;488.10;;;25.80;99.90;;;;;;5092287;28;20241;-76
2023/06/25 07:54:18;;;;;;;642.75;599.10;;;26.00;99.90;;;;;;5091980;28;20237;-74
2023/06/25 07:56:45;;;;;;;758.70;705.72;;;26.20;99.90;;;;;;5093341;28;20222;-74
2023/06/25 07:59:15;;;;;;;852.55;790.17;;;26.20;99.90;;;;;;5092854;28;20210;-75
2023/06/25 08:01:42;;;;;;;886.30;820.85;;;26.10;99.90;;;;;;5093320;28;20270;-74
2023/06/25 08:04:09;;;;;;;803.92;747.05;;;26.30;99.90;;;;;;5094480;28;20668;-76
2023/06/25 08:06:36;;;;;;;741.42;691.60;;;26.50;99.90;;;;;;5096066;28;20225;-74
2023/06/25 08:09:03;;;;;;;694.22;648.67;;;26.60;99.90;;;;;;5097142;28;20224;-75
2023/06/25 08:11:30;;;;;;;683.88;640.20;;;26.80;99.90;;;;;;5095661;28;20225;-78
2023/06/25 08:13:57;;;;;;;732.28;674.53;;;26.90;99.90;;;;;;5093843;28;20187;-74
2023/06/25 08:16:25;;;;;;;579.78;546.63;;;26.70;99.90;;;;;;5095014;28;20281;-76
2023/06/25 08:18:52;;;;;;;528.97;500.95;;;26.90;99.90;;;;;;5095314;28;20190;-76
2023/06/25 08:21:19;;;;;;;548.88;519.50;;;27.00;99.90;;;;;;5095805;28;20617;-76
2023/06/25 08:23:45;;;;;;;743.60;696.05;;;27.30;99.90;;;;;;5093928;28;20317;-75
2023/06/25 08:26:15;;;;;;;841.15;785.38;;;27.40;99.90;;;;;;5092937;28;20243;-77
2023/06/25 08:28:42;;;;;;;868.88;815.72;;;27.50;99.90;;;;;;5094498;28;20702;-74
2023/06/25 08:31:09;;;;;;;896.13;839.75;;;27.60;99.90;;;;;;5093945;28;20566;-74
2023/06/25 08:33:38;;;;;;;909.47;853.13;;;27.80;99.90;;;;;;5094431;28;20293;-74
2023/06/25 08:36:05;;;;;;;925.30;866.75;;;27.90;99.90;;;;;;5094827;28;20627;-75
2023/06/25 08:38:33;;;;;;;930.00;871.25;;;28.00;99.90;;;;;;5093991;28;20202;-76
2023/06/25 08:41:01;;;;;;;915.63;851.40;;;28.10;99.90;;;;;;5094476;28;20339;-77
2023/06/25 08:43:28;;;;;;;948.25;878.20;;;28.00;99.90;;;;;;5094599;28;20202;-76
2023/06/25 08:45:55;;;;;;;938.17;871.85;;;27.90;99.90;;;;;;5095336;28;20297;-74
2023/06/25 08:48:24;;;;;;;952.55;884.92;;;27.90;99.90;;;;;;5093444;28;20215;-74
2023/06/25 08:50:56;;;;;;;956.70;888.05;;;28.00;99.90;;;;;;5093927;28;20198;-75
2023/06/25 08:53:26;;;;;;;757.63;706.50;;;28.10;99.90;;;;;;5094478;28;20274;-76
2023/06/25 08:55:56;;;;;;;641.63;602.33;;;28.20;99.90;;;;;;5095414;28;20230;-77
2023/06/25 08:58:24;;;;;;;820.42;760.90;;;28.40;99.90;;;;;;5095977;28;20241;-74
2023/06/25 09:00:51;;;;;;;828.33;769.22;;;28.50;99.90;;;;;;5095784;28;20289;-75
2023/06/25 09:03:18;;;;;;;842.42;780.42;;;28.60;99.90;;;;;;5095473;28;20249;-76
2023/06/25 09:05:54;;;;;;;897.00;830.17;;;28.70;99.90;;;;;;5095079;28;20233;-75
2023/06/25 09:08:21;;;;;;;817.50;757.83;;;28.90;99.90;;;;;;5093808;28;20201;-74
2023/06/25 09:10:51;;;;;;;878.20;811.67;;;29.00;99.90;;;;;;5093677;28;20228;-75
2023/06/25 09:13:22;;;;;;;691.58;645.92;;;29.20;99.90;;;;;;5094010;28;20221;-77
2023/06/25 09:15:50;;;;;;;570.28;536.95;;;29.40;99.90;;;;;;5093184;28;20280;-75
2023/06/25 09:18:21;;;;;;;544.42;513.75;;;29.40;99.90;;;;;;5092964;28;20642;-76
2023/06/25 09:20:48;;;;;;;609.13;572.47;;;29.40;99.90;;;;;;5093258;28;20221;-74
2023/06/25 09:23:22;;;;;;;567.55;535.08;;;29.50;99.90;;;;;;5094450;28;20214;-77
2023/06/25 09:25:51;;;;;;;590.28;555.63;;;29.60;99.90;;;;;;5093382;28;20246;-75
2023/06/25 09:28:18;;;;;;;639.47;600.53;;;29.70;99.90;;;;;;5094430;28;20632;-74
2023/06/25 09:30:45;;;;;;;590.08;556.70;;;29.70;99.90;;;;;;5095115;28;20202;-74
2023/06/25 09:33:13;;;;;;;577.72;544.17;;;29.70;99.50;;;;;;5095749;28;20241;-75
2023/06/25 09:35:40;;;;;;;578.58;544.78;;;29.90;99.90;;;;;;5095061;28;20234;-74
2023/06/25 09:38:07;;;;;;;531.47;499.45;;;30.20;99.60;;;;;;5095272;28;20321;-76
2023/06/25 09:40:36;;;;;;;656.28;612.40;;;30.20;97.90;;;;;;5094810;28;20210;-76
2023/06/25 09:43:06;;;;;;;553.50;522.85;;;30.30;98.50;;;;;;5093468;28;20338;-78
2023/06/25 09:45:35;;;;;;;579.15;545.42;;;30.30;97.70;;;;;;5093009;28;20215;-76
2023/06/25 09:48:02;;;;;;;590.30;549.65;;;30.30;97.60;;;;;;5091810;28;20737;-75
2023/06/25 09:50:35;;;;;;;512.30;484.67;;;30.40;95.90;;;;;;5091802;28;20293;-77
2023/06/25 09:53:12;;;;;;;569.13;535.15;;;30.30;95.70;;;;;;5091093;28;20191;-75
2023/06/25 09:55:42;;;;;;;513.83;485.55;;;30.40;95.50;;;;;;5093734;28;20697;-76
2023/06/25 09:58:10;;;;;;;509.98;482.10;;;30.50;95.60;;;;;;5092723;28;20301;-76
2023/06/25 10:00:39;;;;;;;499.27;473.23;;;30.60;94.80;;;;;;5092685;28;20310;-77
2023/06/25 10:03:06;;;;;;;484.85;458.77;;;30.70;94.10;;;;;;5091314;28;20816;-78
2023/06/25 10:05:34;;;;;;;487.20;461.08;;;30.70;94.40;;;;;;5090803;28;20219;-77
2023/06/25 10:08:02;;;;;;;540.88;510.83;;;30.80;94.60;;;;;;5090727;28;20302;-76
2023/06/25 10:10:31;;;;;;;684.45;636.67;;;31.00;95.20;;;;;;5092724;28;20217;-77
2023/06/25 10:13:03;;;;;;;522.65;492.38;;;31.30;95.90;;;;;;5095942;22;20238;-64
2023/06/25 10:15:31;;;;;;;612.28;573.70;;;31.30;92.90;;;;;;5063556;28;20228;-64
2023/06/25 10:17:59;;;;;;;498.50;470.85;;;31.40;94.50;;;;;;5065809;28;20203;-67
2023/06/25 10:20:28;;;;;;;512.28;481.10;;;31.30;92.40;;;;;;5068348;28;20199;-67
2023/06/25 10:23:09;;;;;;;501.85;473.67;;;31.20;92.30;;;;;;5068979;28;20649;-66
2023/06/25 10:25:38;;;;;;;458.95;433.15;;;31.30;92.40;;;;;;5069788;28;20207;-66
2023/06/25 10:28:10;;;;;;;485.35;458.73;;;31.40;92.10;;;;;;5069017;28;20211;-64
2023/06/25 10:30:38;;;;;;;495.70;467.83;;;31.40;91.40;;;;;;5070163;28;20239;-65
2023/06/25 10:33:06;;;;;;;470.48;444.27;;;31.40;91.90;;;;;;5070615;28;20227;-66
2023/06/25 10:35:39;;;;;;;482.05;456.10;;;31.60;91.70;;;;;;5057336;28;20224;-66
2023/06/25 10:38:05;;;;;;;450.38;426.42;;;31.70;91.00;;;;;;5058460;28;20685;-65
2023/06/25 10:40:36;;;;;;;443.85;420.95;;;31.70;90.30;;;;;;5067897;28;20223;-66
2023/06/25 10:43:03;;;;;;;473.80;448.95;;;31.80;90.80;;;;;;5067965;28;20700;-67
2023/06/25 10:45:32;;;;;;;450.30;426.73;;;31.70;90.00;;;;;;5068478;28;20199;-66
2023/06/25 10:48:08;;;;;;;475.50;447.90;;;31.90;90.10;;;;;;5086414;28;20556;-65
2023/06/25 10:50:36;;;;;;;476.80;450.88;;;31.80;90.00;;;;;;5085906;28;20862;-65
2023/06/25 10:53:04;;;;;;;469.45;444.77;;;31.50;89.10;;;;;;5076232;28;20888;-66
2023/06/25 10:55:31;;;;;;;533.80;501.80;;;31.30;91.00;;;;;;5065001;28;20203;-66
2023/06/25 10:57:58;;;;;;;545.53;512.13;;;31.20;93.00;;;;;;5066606;28;20208;-66
2023/06/25 11:00:27;;;;;;;461.63;437.42;;;31.20;92.30;;;;;;5065752;28;20601;-66
2023/06/25 11:02:54;;;;;;;507.25;481.13;;;31.30;91.10;;;;;;5066475;28;20720;-65
2023/06/25 11:05:33;;;;;;;491.35;465.50;;;31.50;90.40;;;;;;5054270;28;20485;-66
2023/06/25 11:07:59;;;;;;;456.95;431.85;;;31.60;89.90;;;;;;5046341;28;20223;-65
2023/06/25 11:10:26;;;;;;;474.55;449.27;;;31.70;89.80;;;;;;5059959;28;20204;-66
2023/06/25 11:12:54;;;;;;;496.13;467.83;;;31.70;89.20;;;;;;5066269;28;20223;-66
2023/06/25 11:15:21;;;;;;;663.70;616.35;;;31.80;91.20;;;;;;5065252;28;20206;-67
2023/06/25 11:17:51;;;;;;;910.20;829.53;;;31.90;92.90;;;;;;5065488;28;20203;-67
2023/06/25 11:20:18;;;;;;;829.95;762.13;;;31.90;94.10;;;;;;5065782;28;20199;-67
2023/06/25 11:22:47;;;;;;;669.53;622.40;;;31.90;94.10;;;;;;5066334;28;20231;-66
2023/06/25 11:25:14;;;;;;;599.00;560.67;;;31.90;92.80;;;;;;5065268;28;20210;-66
2023/06/25 11:27:41;;;;;;;697.65;646.53;;;31.90;92.50;;;;;;5064640;28;20246;-67
2023/06/25 11:30:09;;;;;;;656.95;609.53;;;31.90;93.30;;;;;;5065487;28;20253;-65
2023/06/25 11:32:38;;;;;;;609.92;570.55;;;31.90;92.60;;;;;;5066206;28;20312;-66
2023/06/25 11:35:12;;;;;;;615.97;577.97;;;31.90;92.70;;;;;;5065416;28;20268;-66
2023/06/25 11:37:48;;;;;;;595.83;563.42;;;32.20;93.40;;;;;;5056472;28;20687;-65
2023/06/25 11:40:22;;;;;;;486.77;459.52;;;32.30;92.90;;;;;;5045633;28;20247;-68
2023/06/25 11:42:49;;;;;;;611.60;572.53;;;32.30;90.80;;;;;;5059918;28;20227;-66
2023/06/25 11:45:16;;;;;;;1047.57;921.67;;;32.20;91.40;;;;;;5055391;28;20208;-67
2023/06/25 11:47:45;;;;;;;485.45;455.63;;;32.30;92.10;;;;;;5046899;28;20224;-65
2023/06/25 11:50:12;;;;;;;606.63;567.28;;;32.50;91.50;;;;;;5056571;28;20219;-65
2023/06/25 11:52:39;;;;;;;703.47;656.67;;;32.40;90.00;;;;;;5065441;28;20231;-66
2023/06/25 11:55:09;;;;;;;695.47;649.35;;;32.50;90.80;;;;;;5056975;28;20210;-66
2023/06/25 11:57:36;;;;;;;665.70;623.08;;;32.50;89.90;;;;;;5042350;28;20251;-66
2023/06/25 12:00:04;;;;;;;688.08;642.30;;;32.50;87.20;;;;;;5030741;28;20573;-65
2023/06/25 12:02:30;;;;;;;641.20;599.05;;;32.50;88.20;;;;;;5031620;28;20315;-63
2023/06/25 12:04:57;;;;;;;621.72;580.67;;;32.50;85.60;;;;;;5034985;28;20581;-63
2023/06/25 12:07:24;;;;;;;705.22;658.00;;;32.50;86.20;;;;;;5032090;28;20254;-62
2023/06/25 12:09:51;;;;;;;676.95;629.53;;;32.50;90.00;;;;;;5030935;28;20213;-62
2023/06/25 12:12:19;;;;;;;691.63;643.13;;;32.60;90.10;;;;;;5031471;28;20230;-62
2023/06/25 12:14:47;;;;;;;601.55;558.05;;;32.70;90.10;;;;;;5035420;28;20200;-62